DRI Storm Peak Lab. Weather observations

Data are for 5 minute period ending at time listed.
 Day   Time    Ave.   Ave.  Ave.  Vector  Max.   Total    Baro.    Solar      Aerosol      Ave.  Ultrafine   Snow  
  of    of     Air    Rel.  Wind   Wind   Wind  Precip.   Pres.  Radiation   Aerosol      Ozone   Aerosol    Depth 
Year   Day     Temp.  Hum.  Speed  Dir.   Gust                               Ave.   Max.            Ave.           
2014   (MST)    F      %     mph   deg.    mph    in.      mb.     w/m2         #/cm3      ppbv    #/cm3      in.  
-------------------------------------------------------------------------------------------------------------------
 213    0:45   46.7    74   10.2   103    13.9   999.00    698.4      0.0    -1434       0   999.0        0     0.0
 213    0:50   46.6    75   11.7    98    14.4   999.00    698.4      0.0    -1434       0   999.0        0     0.0
 213    0:55   46.5    74   10.2   102    14.4   999.00    698.3      0.0    -1434       0   999.0        0     0.0
 213    1:00   46.6    73    8.4   109    14.3   999.00    698.3      0.0    -1434       0   999.0        0     0.0
 213    1:05   46.5    73    7.2   104    10.9   999.00    698.3      0.0    -1434       0   999.0        0     0.0
 213    1:10   46.5    72    7.7   111    11.7   999.00    698.2      0.0    -1434       0   999.0        0     0.0
 213    1:15   46.5    72    8.2   106    10.9   999.00    698.2      0.0    -1434       0   999.0        0     0.0
 213    1:20   46.5    71    8.5   106    11.5   999.00    698.2      0.0    -1434       0   999.0        0     0.0
 213    1:25   46.7    70    8.6   110    12.0   999.00    698.2      0.0    -1434       0   999.0        0     0.0
 213    1:30   46.9    69    8.4   103    11.1   999.00    698.2      0.0    -1434       0   999.0        0     0.0
 213    1:35   46.9    70    7.7   110    11.7   999.00    698.1      0.0    -1434       0   999.0        0     0.0
 213    1:40   46.6    70    8.5   107    12.6   999.00    698.1      0.0    -1434       0   999.0        0     0.0
 213    1:45   46.8    70    8.1   104    12.0   999.00    698.2      0.0    -1435       0   999.0        0     0.0
 213    1:50   46.7    70    8.3   108    11.5   999.00    698.2      0.0    -1435       0   999.0        0     0.0
 213    1:55   46.7    70    9.0   104    12.2   999.00    698.1      0.0    -1435       0   999.0        0     0.0
 213    2:00   46.7    69    9.4    96    13.0   999.00    698.1      0.0    -1435       0   999.0        0     0.0
 213    2:05   46.8    69    7.7    92    11.7   999.00    698.1      0.0    -1435       0   999.0        0     0.0
 213    2:10   46.7    70    9.0    98    12.6   999.00    698.1      0.0    -1435       0   999.0        0     0.0
 213    2:15   46.5    71    9.4   104    12.0   999.00    698.1      0.0    -1435       0   999.0        0     0.0
 213    2:20   46.5    70    8.2   102    12.6   999.00    698.0      0.0    -1435       0   999.0        0     0.0
 213    2:25   46.4    70    8.2   103    12.6   999.00    698.0      0.0    -1435       0   999.0        0     0.0
 213    2:30   46.3    70    7.6   104    10.0   999.00    698.0      0.0    -1435       0   999.0        0     0.0
 213    2:35   46.4    70    9.3   104    12.2   999.00    697.9      0.0    -1435       0   999.0        0     0.0
 213    2:40   46.6    69    9.9   103    14.6   999.00    698.0      0.0    -1435       0   999.0        0     0.0
 213    2:45   46.7    69    9.4    99    11.5   999.00    698.1      0.0    -1435       0   999.0        0     0.0
 213    2:50   46.6    70   10.8    99    12.8   999.00    698.0      0.0    -1435       0   999.0        0     0.0
 213    2:55   46.7    70    9.1   103    13.0   999.00    698.0      0.0    -1435       0   999.0        0     0.0
 213    3:00   46.6    69    9.3   101    12.6   999.00    698.0      0.0    -1435       0   999.0        0     0.0
 213    3:05   46.7    68   10.3   103    12.4   999.00    698.0      0.0    -1435       0   999.0        0     0.0
 213    3:10   46.7    67    8.9   102    12.2   999.00    697.9      0.0    -1435       0   999.0        0     0.0
 213    3:15   46.8    67    8.2   100    11.7   999.00    697.9      0.0    -1435       0   999.0        0     0.0
 213    3:20   46.9    67    7.5   101    10.6   999.00    697.9      0.0    -1435       0   999.0        0     0.0
 213    3:25   47.0    68    5.9   103     8.3   999.00    697.9      0.0    -1435       0   999.0        0     0.0
 213    3:30   46.9    67    5.7   106     8.7   999.00    697.9      0.0    -1435       0   999.0        0     0.0
 213    3:35   46.7    67    5.9   107     7.4   999.00    697.9      0.0    -1435       0   999.0        0     0.0
 213    3:40   46.7    65    8.3   106    10.9   999.00    697.9      0.0    -1435       0   999.0        0     0.0
 213    3:45   46.8    64    8.5   100    10.7   999.00    697.9      0.0    -1436       0   999.0        0     0.0
 213    3:50   47.0    65    8.2    97     9.8   999.00    697.9      0.0    -1436       0   999.0        0     0.0
 213    3:55   47.0    64    7.5    94     9.4   999.00    697.9      0.0    -1436       0   999.0        0     0.0
 213    4:00   47.2    66    7.2    91     9.2   999.00    697.9      0.0    -1436       0   999.0        0     0.0
 213    4:05   47.0    66    8.1    95    10.4   999.00    697.9      0.0    -1436       0   999.0        0     0.0
 213    4:10   46.9    67    7.7    94     9.4   999.00    697.9      0.0    -1436       0   999.0        0     0.0
 213    4:15   47.1    70    7.4    87     9.4   999.00    697.9      0.0    -1436       0   999.0        0     0.0
 213    4:20   47.8    70    8.6    76     9.8   999.00    697.9      0.0    -1436       0   999.0        0     0.0
 213    4:25   48.1    69    9.1    64    10.6   999.00    698.0      0.0    -1436       0   999.0        0     0.0
 213    4:30   48.2    70    8.4    61     9.8   999.00    698.0      0.0    -1436       0   999.0        0     0.0
 213    4:35   48.1    70    7.5    61     9.8   999.00    697.9      0.0    -1436       0   999.0        0     0.0
 213    4:40   48.6    71    7.1    61     8.3   999.00    697.9      0.0    -1436       0   999.0        0     0.0
 213    4:45   48.5    71    7.5    64     8.7   999.00    697.9      0.0    -1437       0   999.0        0     0.0
 213    4:50   48.0    71    7.1    69     8.3   999.00    697.9      0.0    -1437       0   999.0        0     0.0
 213    4:55   48.0    71    5.9    74     7.8   999.00    697.9      0.0    -1437       0   999.0        0     0.0
 213    5:00   47.4    72    4.7    76     6.3   999.00    697.9      0.0    -1437       0   999.0        0     0.0
 213    5:05   47.0    73    5.8    88     6.6   999.00    697.9      0.0    -1437       0   999.0        0     0.0
 213    5:10   46.7    74    6.0    96     7.4   999.00    698.0      0.0    -1437       0   999.0        0     0.0
 213    5:15   46.3    74    5.1   106     7.2   999.00    698.0      0.0    -1437       0   999.0        0     0.0
 213    5:20   45.9    74    7.8   104    11.3   999.00    698.1      0.0    -1437       0   999.0        0     0.0
 213    5:25   45.8    70    8.4   107    11.3   999.00    698.1      0.0    -1438       0   999.0        0     0.0
 213    5:30   45.9    71    9.1   100    11.3   999.00    698.1      0.0    -1437       0   999.0        0     0.0
 213    5:35   46.0    73    8.2   100     9.6   999.00    698.2      0.0    -1438       0   999.0        0     0.0
 213    5:40   46.4    70    7.3   101     9.2   999.00    698.1      0.0    -1438       0   999.0        0     0.0
 213    5:45   46.7    69    7.7   103    11.5   999.00    698.2      0.0    -1438       0   999.0        0     0.0
 213    5:50   47.0    68    9.6   100    12.2   999.00    698.3      0.0    -1438       0   999.0        0     0.0
 213    5:55   47.1    66    9.3    99    11.7   999.00    698.2      0.0    -1438       0   999.0        0     0.0
 213    6:00   47.4    65    8.9    96    10.9   999.00    698.2      0.0    -1438       0   999.0        0     0.0
 213    6:05   48.1    64    7.6    95     9.8   999.00    698.3      0.0    -1438       0   999.0        0     0.0
 213    6:10   48.7    64    5.8    96     7.0   999.00    698.4      0.0    -1438       0   999.0        0     0.0
 213    6:15   50.3    62    5.8    90     7.0   999.00    698.4      0.0    -1438       0   999.0        0     0.0
 213    6:20   50.9    61    6.2    75     7.8   999.00    698.4      0.0    -1438       0   999.0        0     0.0
 213    6:25   50.8    61    6.5    66     8.5   999.00    698.4      0.0    -1438       0   999.0        0     0.0
 213    6:30   50.8    62    6.5    61     7.8   999.00    698.4      0.0    -1438       0   999.0        0     0.0
 213    6:35   50.6    64    5.8    60     6.8   999.00    698.4      0.0    -1438       0   999.0        0     0.0
 213    6:40   50.8    63    5.6    61     7.0   999.00    698.4      0.0    -1438       0   999.0        0     0.0
 213    6:45   51.1    63    5.8    63     7.9   999.00    698.5      0.0    -1438       0   999.0        0     0.0
 213    6:50   51.4    64    3.9    61     6.6   999.00    698.5      0.0    -1438       0   999.0        0     0.0
 213    6:55   51.2    64    2.0    60     4.0   999.00    698.5      0.0    -1437       0   999.0        0     0.0
 213    7:00   50.9    66    2.1    76     4.0   999.00    698.5      0.0    -1437       0   999.0        0     0.0
 213    7:05   50.5    65    2.7   117     4.6   999.00    698.5      0.0    -1437       0   999.0        0     0.0
 213    7:10   50.3    64    3.9   126     4.8   999.00    698.5      0.0    -1437       0   999.0        0     0.0
 213    7:15   50.3    63    4.8   125     6.5   999.00    698.5      0.0    -1437       0   999.0        0     0.0
 213    7:20   51.0    61    4.2   121     7.6   999.00    698.5      0.0    -1436       0   999.0        0     0.0
 213    7:25   51.9    61    4.5   112     9.2   999.00    698.6      0.0    -1436       0   999.0        0     0.0
 213    7:30   51.2    60    4.7   117     6.6   999.00    698.5      0.0    -1436       0   999.0        0     0.0
 213    7:35   50.6    60    5.3   117     7.0   999.00    698.5      0.0    -1436       0   999.0        0     0.0
 213    7:40   51.0    60    5.2   115     6.8   999.00    698.5      0.0    -1436       0   999.0        0     0.0
 213    7:45   51.5    60    5.3   116     7.2   999.00    698.5      0.0    -1436       0   999.0        0     0.0
 213    7:50   51.7    60    4.5   119    10.2   999.00    698.6      0.0    -1436       0   999.0        0     0.0
 213    7:55   51.8    62    5.7   103     8.1   999.00    698.6      0.0    -1436       0   999.0        0     0.0
 213    8:00   52.0    60    5.7    97     7.6   999.00    698.6      0.0    -1435       0   999.0        0     0.0
 213    8:05   52.8    60    2.4    96     3.7   999.00    698.7      0.0    -1435       0   999.0        0     0.0
 213    8:10   53.5    58    3.2    98     6.3   999.00    698.7      0.0    -1435       0   999.0        0     0.0
 213    8:15   53.6    58    2.4    97     4.2   999.00    698.7      0.0    -1435       0   999.0        0     0.0
 213    8:20   54.0    56    3.1   110     5.7   999.00    698.7      0.0    -1435       0   999.0        0     0.0
 213    8:25   54.1    56    1.8    78     1.8   999.00    698.6      0.0    -1434       0   999.0        0     0.0
 213    8:30   54.6    58    2.1    79     4.0   999.00    698.7      0.0    -1435       0   999.0        0     0.0
 213    8:35   54.0    58    2.0    85     3.5   999.00    698.8      0.0    -1434       0   999.0        0     0.0
 213    8:40   53.9    59    2.3   165     4.2   999.00    698.8      0.0    -1434       0   999.0        0     0.0
 213    8:45   53.4    59    3.2   193     5.3   999.00    698.8      0.0    -1434       0   999.0        0     0.0
 213    8:50   52.8    62    2.5   180     4.2   999.00    698.9      0.0    -1433       0   999.0        0     0.0
 213    8:55   53.1    56    2.7   176     4.6   999.00    698.9      0.0    -1433       0   999.0        0     0.0
 213    9:00   52.4    59    3.1   154     5.2   999.00    698.9      0.0    -1433       0   999.0        0     0.0
 213    9:05   52.5    62    3.8   166     7.8   999.00    698.9      0.0    -1433       0   999.0        0     0.0
 213    9:10   52.8    61    3.3   151     6.1   999.00    698.9      0.0    -1432       0   999.0        0     0.0
 213    9:15   53.1    62    3.8   172     6.5   999.00    698.9      0.0    -1432       0   999.0        0     0.0
 213    9:20   51.2    67    5.9   168     8.1   999.00    699.0      0.0    -1432       0   999.0        0     0.0
 213    9:25   51.0    67    6.6   174     8.7   999.00    699.0      0.0    -1432       0   999.0        0     0.0
 213    9:30   49.8    74    6.7   187     9.4   999.00    699.0      0.0    -1432       0   999.0        0     0.0
 213    9:35   49.5    72    4.6   174     6.1   999.00    699.1      0.0    -1432       0   999.0        0     0.0
 213    9:40   49.9    70    5.4   189     7.9   999.00    699.1      0.0    -1432       0   999.0        0     0.0
 213    9:45   49.3    71    4.9   205     6.8   999.00    699.1      0.0    -1432       0   999.0        0     0.0
 213    9:50   49.7    71    5.6   205    10.2   999.00    699.1      0.0    -1432       0   999.0        0     0.0
 213    9:55   49.8    72    6.5   208    10.6   999.00    699.1      0.0    -1432       0   999.0        0     0.0
 213   10:00   49.9    74    7.0   201    11.3   999.00    699.2      0.0    -1432       0   999.0        0     0.0
 213   10:05   49.9    75    6.9   197     9.4   999.00    699.3      0.0    -1432       0   999.0        0     0.0
 213   10:10   49.8    77    8.4   195    12.0   999.00    699.2      0.0    -1432       0   999.0        0     0.0
 213   10:15   50.9    78    8.6   207    11.5   999.00    699.2      0.0    -1432       0   999.0        0     0.0
 213   10:20   50.7    77    9.3   198    14.3   999.00    699.1      0.0    -1432       0   999.0        0     0.0
 213   10:25   50.4    78    7.5   204    11.8   999.00    699.2      0.0    -1432       0   999.0        0     0.0
 213   10:30   49.7    78    6.7   213    10.6   999.00    699.2      0.0    -1432       0   999.0        0     0.0
 213   10:35   50.1    79    7.2   223    12.6   999.00    699.2      0.0    -1432       0   999.0        0     0.0
 213   10:40   51.5    76    7.9   233    11.5   999.00    699.2      0.0    -1432       0   999.0        0     0.0
 213   10:45   52.0    78    6.4   243    11.3   999.00    699.2      0.0    -1432       0   999.0        0     0.0
 213   10:50   51.7    78    7.9   231    11.3   999.00    699.2      0.0    -1431       0   999.0        0     0.0
 213   10:55   51.3    79    7.0   208     9.2   999.00    699.2      0.0    -1431       0   999.0        0     0.0
 213   11:00   50.5    83    8.1   226    11.8   999.00    699.2      0.0    -1431       0   999.0        0     0.0
 213   11:05   50.1    84    9.8   241    12.8   999.00    699.2      0.0    -1431       0   999.0        0     0.0
 213   11:10   49.7    85    8.5   231    13.3   999.00    699.1      0.0    -1431       0   999.0        0     0.0
 213   11:15   49.8    83    8.7   232    12.6   999.00    699.1      0.0    -1431       0   999.0        0     0.0
 213   11:20   49.7    83    7.5   234    11.1   999.00    699.1      0.0    -1430       0   999.0        0     0.0
 213   11:25   49.5    84    5.1   247     9.2   999.00    699.1      0.0    -1430       0   999.0        0     0.0
 213   11:30   50.0    82    7.8   258    10.4   999.00    699.1      0.0    -1430       0   999.0        0     0.0
 213   11:35   49.8    84    6.7   235    10.0   999.00    699.2      0.0    -1430       0   999.0        0     0.0
 213   11:40   50.0    83    6.2   197     8.3   999.00    699.2      0.0    -1430       0   999.0        0     0.0
 213   11:45   50.9    82    4.5   188     6.3   999.00    699.3      0.0    -1430       0   999.0        0     0.0
 213   11:50   53.3    76    3.5   149     5.2   999.00    699.2      0.0    -1430       0   999.0        0     0.0
 213   11:55   52.9    78    4.5   166     7.0   999.00    699.2      0.0    -1430       0   999.0        0     0.0
 213   12:00   52.6    78    4.3   140     7.9   999.00    699.2      0.0    -1430       0   999.0        0     0.0
 213   12:05   52.2    76    4.7   158     6.6   999.00    699.2      0.0    -1430       0   999.0        0     0.0
 213   12:10   51.8    76    4.0   186     7.9   999.00    699.2      0.0    -1430       0   999.0        0     0.0
 213   12:15   52.3    76    5.3   151     7.0   999.00    699.2      0.0    -1430       0   999.0        0     0.0
 213   12:20   54.4    75    3.1   120     6.3   999.00    699.2      0.0    -1429       0   999.0        0     0.0
 213   12:25   56.9    71    3.3   122     5.2   999.00    699.1      0.0    -1429       0   999.0        0     0.0
 213   12:30   56.7    62    4.2   152     7.6   999.00    699.1      0.0    -1429       0   999.0        0     0.0
 213   12:35   54.8    62    4.9   156     9.1   999.00    699.1      0.0    -1428       0   999.0        0     0.0
 213   12:40   55.2    61    3.6   135     7.0   999.00    699.1      0.0    -1428       0   999.0        0     0.0
 213   12:45   56.1    61    4.2   151     6.8   999.00    699.2      0.0    -1428       0   999.0        0     0.0
 213   12:50   56.1    60    2.5   127     4.0   999.00    699.1      0.0    -1428       0   999.0        0     0.0
 213   12:55   54.5    59    1.9   126     2.7   999.00    699.2      0.0    -1429       0   999.0        0     0.0
 213   13:00   53.9    66    1.8   126     2.0   999.00    699.1      0.0    -1429       0   999.0        0     0.0
 213   13:05   52.6    68    1.8   126     1.8   999.00    699.0      0.0    -1428       0   999.0        0     0.0
 213   13:10   52.4    72    3.6   200     5.2   999.00    698.9      0.0    -1428       0   999.0        0     0.0
 213   13:15   52.7    66    2.0   217     4.2   999.00    698.9      0.0    -1426       0   999.0        0     0.0
 213   13:20   53.6    66    1.8   217     1.8   999.00    698.9      0.0    -1426       0   999.0        0     0.0
 213   13:25   54.5    66    3.9   233     7.0   999.00    698.9      0.0    -1426       0   999.0        0     0.0
 213   13:30   55.3    66    4.8   289     7.2   999.00    698.9      0.0    -1426       0   999.0        0     0.0
 213   13:35   54.7    65    2.4   279     4.6   999.00    698.9      0.0    -1426       0   999.0        0     0.0
 213   13:40   54.1    66    3.1   220     5.3   999.00    698.8      0.0    -1425       0   999.0        0     0.0
 213   13:45   55.0    68    2.7   138     5.5   999.00    698.8      0.0    -1425       0   999.0        0     0.0
 213   13:50   55.8    63    4.0   157     7.6   999.00    698.7      0.0    -1425       0   999.0        0     0.0
 213   13:55   56.2    60    3.0   205     6.3   999.00    698.7      0.0    -1425       0   999.0        0     0.0
 213   14:00   58.7    55    3.8   165     7.9   999.00    698.7      0.0    -1425       0   999.0        0     0.0
 213   14:05   58.7    57    4.4   124     8.1   999.00    698.7      0.0    -1425       0   999.0        0     0.0
 213   14:10   57.4    55    4.3   122     7.9   999.00    698.6      0.0    -1424       0   999.0        0     0.0
 213   14:15   57.7    55    2.8   152     6.1   999.00    698.6      0.0    -1424       0   999.0        0     0.0
 213   14:20   59.1    48    1.8   138     2.5   999.00    698.6      0.0    -1424       0   999.0        0     0.0
 213   14:25   57.4    51    2.5   131     4.0   999.00    698.7      0.0    -1424       0   999.0        0     0.0
 213   14:30   55.4    65    3.2   316     4.6   999.00    698.7      0.0    -1424       0   999.0        0     0.0
 213   14:35   54.8    66    3.3   291     4.4   999.00    698.7      0.0    -1424       0   999.0        0     0.0
 213   14:40   54.3    67    3.8   285     5.2   999.00    698.6      0.0    -1424       0   999.0        0     0.0
 213   14:45   55.2    66    3.4   277     5.7   999.00    698.6      0.0    -1423       0   999.0        0     0.0
 213   14:50   55.6    63    5.3   235     7.6   999.00    698.5      0.0    -1423       0   999.0        0     0.0
 213   14:55   57.7    57    4.8   187     8.9   999.00    698.5      0.0    -1423       0   999.0        0     0.0
 213   15:00   59.4    54    3.4   201     6.5   999.00    698.6      0.0    -1423       0   999.0        0     0.0
 213   15:05   58.6    49    3.2   250     5.5   999.00    698.6      0.0    -1423       0   999.0        0     0.0
 213   15:10   57.3    53    3.3   292     5.0   999.00    698.7      0.0    -1423       0   999.0        0     0.0
 213   15:15   56.8    56    5.9   311     9.8   999.00    698.6      0.0    -1422       0   999.0        0     0.0
 213   15:20   55.3    61    7.6   334    10.0   999.00    698.5      0.0    -1421       0   999.0        0     0.0
 213   15:25   55.2    63    5.9   356     7.9   999.00    698.6      0.0    -1420       0   999.0        0     0.0
 213   15:30   55.0    63    4.7   344     6.8   999.00    698.6      0.0    -1420       0   999.0        0     0.0
 213   15:35   55.3    65    2.1   342     3.7   999.00    698.6      0.0    -1420       0   999.0        0     0.0
 213   15:40   55.6    62    4.3   346     6.1   999.00    698.6      0.0    -1420       0   999.0        0     0.0
 213   15:45   55.5    62    2.9    14     5.0   999.00    698.6      0.0    -1420       0   999.0        0     0.0
 213   15:50   56.1    55    3.9     3     6.6   999.00    698.5      0.0    -1419       0   999.0        0     0.0
 213   15:55   56.4    52    4.1   344     6.5   999.00    698.4      0.0    -1419       0   999.0        0     0.0
 213   16:00   57.2    51    3.3   357     6.1   999.00    698.4      0.0    -1419       0   999.0        0     0.0
 213   16:05   58.2    45    1.8    18     1.8   999.00    698.5      0.0    -1419       0   999.0        0     0.0
 213   16:10   57.7    37    1.8    22     2.0   999.00    698.4      0.0    -1419       0   999.0        0     0.0
 213   16:15   58.4    40    1.8     3     1.8   999.00    698.4      0.0    -1419       0   999.0        0     0.0
 213   16:20   59.3    37    1.8    16     1.8   999.00    698.3      0.0    -1418       0   999.0        0     0.0
 213   16:25   58.8    35    1.8    10     1.8   999.00    698.4      0.0    -1418       0   999.0        0     0.0
 213   16:30   58.2    37    1.8    21     1.8   999.00    698.5      0.0    -1418       0   999.0        0     0.0
 213   16:35   57.3    36    1.8     4     1.8   999.00    698.5      0.0    -1418       0   999.0        0     0.0
 213   16:40   56.9    32    1.8    28     1.8   999.00    698.5      0.0    -1418       0   999.0        0     0.0
 213   16:45   57.1    34    1.8    59     1.8   999.00    698.4      0.0    -1417       0   999.0        0     0.0
 213   16:50   58.4    36    1.8    79     1.8   999.00    698.5      0.0    -1418       0   999.0        0     0.0
 213   16:55   58.9    35    1.8    79     1.8   999.00    698.4      0.0    -1417       0   999.0        0     0.0
 213   17:00   60.4    34    1.8    82     1.8   999.00    698.4      0.0    -1417       0   999.0        0     0.0
 213   17:05   59.5    33    1.8    90     1.8   999.00    698.4      0.0    -1417       0   999.0        0     0.0
 213   17:10   57.9    32    1.8    69     1.8   999.00    698.4      0.0    -1417       0   999.0        0     0.0
 213   17:15   57.0    35    1.8    60     2.0   999.00    698.4      0.0    -1417       0   999.0        0     0.0
 213   17:20   58.4    33    1.8    48     1.8   999.00    698.4      0.0    -1417       0   999.0        0     0.0
 213   17:25   60.3    33    1.8   341     1.8   999.00    698.3      0.0    -1416       0   999.0        0     0.0
 213   17:30   60.6    33    1.8    12     1.8   999.00    698.3      0.0    -1416       0   999.0        0     0.0
 213   17:35   59.5    32    1.8    79     1.8   999.00    698.3      0.0    -1416       0   999.0        0     0.0
 213   17:40   60.6    31    1.8    90     1.8   999.00    698.3      0.0    -1416       0   999.0        0     0.0
 213   17:45   59.9    39    1.8   105     2.0   999.00    698.3      0.0    -1416       0   999.0        0     0.0
 213   17:50   57.9    50    2.1   108     7.9   999.00    698.2      0.0    -1415       0   999.0        0     0.0
 213   17:55   56.2    53    9.4   117    13.5   999.00    698.2      0.0    -1415       0   999.0        0     0.0
 213   18:00   55.1    56    9.9   109    15.6   999.00    698.2      0.0    -1415       0   999.0        0     0.0
 213   18:05   54.4    56    9.7   121    14.1   999.00    698.2      0.0    -1414       0   999.0        0     0.0
 213   18:10   53.8    57   10.1   110    13.9   999.00    698.3      0.0    -1413       0   999.0        0     0.0
 213   18:15   53.5    58    7.7   114    11.8   999.00    698.3      0.0    -1413       0   999.0        0     0.0
 213   18:20   53.1    59    8.1   115    13.5   999.00    698.3      0.0    -1412       0   999.0        0     0.0
 213   18:25   53.3    58    8.0   109    12.2   999.00    698.3      0.0    -1412       0   999.0        0     0.0
 213   18:30   53.2    58    8.3   111    12.6   999.00    698.3      0.0    -1412       0   999.0        0     0.0
 213   18:35   52.9    58    9.4   116    12.8   999.00    698.3      0.0    -1412       0   999.0        0     0.0
 213   18:40   51.2    60    9.4   102    16.7   999.00    698.3      0.0    -1412       0   999.0        0     0.0
 213   18:45   50.4    62   10.5   112    13.7   999.00    698.3      0.0    -1412       0   999.0        0     0.0
 213   18:50   49.8    64    9.6   108    14.6   999.00    698.3      0.0    -1412       0   999.0        0     0.0
 213   18:55   49.5    65   10.2   106    15.0   999.00    698.2      0.0    -1412       0   999.0        0     0.0
 213   19:00   49.6    65    8.7   103    13.0   999.00    698.2      0.0    -1412       0   999.0        0     0.0
 213   19:05   49.6    65    9.7   114    13.5   999.00    698.3      0.0    -1412       0   999.0        0     0.0
 213   19:10   49.3    66   10.1    94    14.4   999.00    698.4      0.0    -1413       0   999.0        0     0.0
 213   19:15   48.7    67    9.1   112    13.3   999.00    698.4      0.0    -1413       0   999.0        0     0.0
 213   19:20   48.5    67    9.8   104    15.4   999.00    698.4      0.0    -1415       0   999.0        0     0.0
 213   19:25   48.2    68    8.9   108    11.8   999.00    698.5      0.0    -1415       0   999.0        0     0.0
 213   19:30   47.8    70    9.1    98    12.0   999.00    698.5      0.0    -1416       0   999.0        0     0.0
 213   19:35   47.6    70    9.6   111    15.6   999.00    698.5      0.0    -1416       0   999.0        0     0.0
 213   19:40   47.6    69   10.4    92    14.1   999.00    698.5      0.0    -1416       0   999.0        0     0.0
 213   19:45   47.7    68   10.6   110    15.6   999.00    698.6      0.0    -1417       0   999.0        0     0.0
 213   19:50   47.7    68   10.3   110    14.6   999.00    698.6      0.0    -1417       0   999.0        0     0.0
 213   19:55   47.6    67   11.0   106    16.1   999.00    698.6      0.0    -1417       0   999.0        0     0.0
 213   20:00   47.6    68   10.7   110    15.6   999.00    698.7      0.0    -1418       0   999.0        0     0.0
 213   20:05   47.4    68    9.9   108    16.3   999.00    698.7      0.0    -1418       0   999.0        0     0.0
 213   20:10   47.3    68   10.9   110    14.3   999.00    698.7      0.0    -1418       0   999.0        0     0.0
 213   20:15   47.2    69   11.1   105    15.4   999.00    698.7      0.0    -1419       0   999.0        0     0.0
 213   20:20   47.1    70   11.9   110    17.2   999.00    698.8      0.0    -1420       0   999.0        0     0.0
 213   20:25   47.1    70   11.5   112    17.8   999.00    698.9      0.0    -1421       0   999.0        0     0.0
 213   20:30   47.0    70   11.3   105    17.1   999.00    698.8      0.0    -1421       0   999.0        0     0.0
 213   20:35   46.8    71   11.0   105    15.0   999.00    698.9      0.0    -1422       0   999.0        0     0.0
 213   20:40   46.9    71   10.8   107    14.1   999.00    699.0      0.0    -1422       0   999.0        0     0.0
 213   20:45   46.9    71   11.5   102    18.5   999.00    699.0      0.0    -1422       0   999.0        0     0.0
 213   20:50   46.9    72   11.6   106    17.6   999.00    699.0      0.0    -1423       0   999.0        0     0.0
 213   20:55   46.9    73   11.4   102    17.6   999.00    698.9      0.0    -1423       0   999.0        0     0.0
 213   21:00   47.0    73   11.4   110    16.3   999.00    698.9      0.0    -1423       0   999.0        0     0.0
 213   21:05   46.9    73   11.4   105    17.6   999.00    699.0      0.0    -1423       0   999.0        0     0.0
 213   21:10   46.9    73   11.0   104    17.6   999.00    699.0      0.0    -1424       0   999.0        0     0.0
 213   21:15   46.9    73   11.0   106    16.1   999.00    699.1      0.0    -1424       0   999.0        0     0.0
 213   21:20   46.7    74   11.4   110    17.4   999.00    699.0      0.0    -1424       0   999.0        0     0.0
 213   21:25   46.6    76   11.4   105    17.2   999.00    699.0      0.0    -1424       0   999.0        0     0.0
 213   21:30   46.6    76   11.1   105    16.5   999.00    698.9      0.0    -1424       0   999.0        0     0.0
 213   21:35   46.7    76   12.3    96    18.9   999.00    698.9      0.0    -1424       0   999.0        0     0.0
 213   21:40   46.7    76   10.9   103    15.0   999.00    698.9      0.0    -1425       0   999.0        0     0.0
 213   21:45   46.6    76   11.4   104    15.8   999.00    699.0      0.0    -1425       0   999.0        0     0.0
 213   21:50   46.6    75   10.7   112    16.5   999.00    698.9      0.0    -1425       0   999.0        0     0.0
 213   21:55   46.8    74   10.4   101    16.1   999.00    698.9      0.0    -1425       0   999.0        0     0.0
 213   22:00   46.6    74   11.5    98    16.7   999.00    698.9      0.0    -1425       0   999.0        0     0.0
 213   22:05   46.7    74   10.7   109    17.8   999.00    698.9      0.0    -1426       0   999.0        0     0.0
 213   22:10   46.7    74   10.7   113    15.8   999.00    698.9      0.0    -1426       0   999.0        0     0.0
 213   22:15   46.6    74   10.4   108    15.2   999.00    698.9      0.0    -1426       0   999.0        0     0.0
 213   22:20   46.5    73   11.1   102    19.1   999.00    698.9      0.0    -1426       0   999.0        0     0.0
 213   22:25   46.4    73   10.8   106    14.4   999.00    698.9      0.0    -1427       0   999.0        0     0.0
 213   22:30   46.4    72   11.6   107    15.9   999.00    698.9      0.0    -1428       0   999.0        0     0.0
 213   22:35   46.3    72   11.5   105    15.4   999.00    699.0      0.0    -1428       0   999.0        0     0.0
 213   22:40   46.3    72   10.2   107    13.5   999.00    699.1      0.0    -1428       0   999.0        0     0.0
 213   22:45   46.1    72   10.2   102    15.6   999.00    699.0      0.0    -1428       0   999.0        0     0.0
 213   22:50   46.2    72   11.2   108    17.1   999.00    699.1      0.0    -1429       0   999.0        0     0.0
 213   22:55   46.3    71   10.3   102    15.2   999.00    699.2      0.0    -1429       0   999.0        0     0.0
 213   23:00   46.3    71   10.4   101    14.1   999.00    699.2      0.0    -1429       0   999.0        0     0.0
 213   23:05   46.4    70    9.6   106    15.9   999.00    699.1      0.0    -1429       0   999.0        0     0.0
 213   23:10   46.4    70    9.7   107    12.2   999.00    699.0      0.0    -1429       0   999.0        0     0.0
 213   23:15   46.3    70    9.1   107    12.6   999.00    699.1      0.0    -1429       0   999.0        0     0.0
 213   23:20   46.1    71    9.4   107    15.4   999.00    699.0      0.0    -1429       0   999.0        0     0.0
 213   23:25   45.8    73    9.9   118    17.4   999.00    699.0      0.0    -1429       0   999.0        0     0.0
 213   23:30   45.4    75    8.7   109    13.0   999.00    698.9      0.0    -1430       0   999.0        0     0.0
 213   23:35   45.3    75    7.8   108    11.5   999.00    699.0      0.0    -1430       0   999.0        0     0.0
 213   23:40   45.5    75    9.2   104    13.9   999.00    699.0      0.0    -1430       0   999.0        0     0.0
 213   23:45   45.7    75    8.8   107    12.8   999.00    699.0      0.0    -1430       0   999.0        0     0.0
 213   23:50   45.6    75    9.3   105    13.9   999.00    698.9      0.0    -1430       0   999.0        0     0.0
 213   23:55   45.6    75    8.9   105    12.6   999.00    698.9      0.0    -1430       0   999.0        0     0.0
 214    0:00   45.7    75    9.2   106    12.8   999.00    698.8      0.0    -1430       0   999.0        0     0.0
 214    0:05   45.6    75    8.7   109    11.7   999.00    698.9      0.0    -1431       0   999.0        0     0.0
 214    0:10   45.7    75    8.5   107    11.7   999.00    698.9      0.0    -1431       0   999.0        0     0.0
 214    0:15   45.6    76    7.7   113    12.4   999.00    698.9      0.0    -1431       0   999.0        0     0.0
 214    0:20   45.5    76    8.1   117    14.3   999.00    698.9      0.0    -1431       0   999.0        0     0.0
 214    0:25   45.5    76    7.3   112    10.7   999.00    698.9      0.0    -1431       0   999.0        0     0.0
 214    0:30   45.3    76    8.0   109    13.5   999.00    698.9      0.0    -1431       0   999.0        0     0.0
 214    0:35   45.1    77    8.4   116    11.3   999.00    698.9      0.0    -1431       0   999.0        0     0.0
 214    0:40   45.1    77    8.4   108    13.3   999.00    698.9      0.0    -1432       0   999.0        0     0.0

Return to DRI Storm Peak Lab. graphs page.


Western Regional Climate Center,wrcc@dri.edu